createdAt,value
2023-03-16T00:00:23.614Z,67.65
2023-03-16T00:01:24.422Z,67.76
2023-03-16T00:02:25.378Z,67.72
2023-03-16T00:03:26.310Z,67.76
2023-03-16T00:04:27.167Z,68.03
2023-03-16T00:05:27.968Z,68.03
2023-03-16T00:06:28.778Z,68.03
2023-03-16T00:07:29.589Z,68.34
2023-03-16T00:08:30.411Z,67.72
2023-03-16T00:09:31.436Z,67.93
2023-03-16T00:10:32.252Z,67.72
2023-03-16T00:11:33.081Z,67.61
2023-03-16T00:12:33.962Z,67.72
2023-03-16T00:13:34.828Z,67.34
2023-03-16T00:14:35.673Z,67.76
2023-03-16T00:15:36.472Z,67.86
2023-03-16T00:16:37.488Z,67.55
2023-03-16T00:17:38.286Z,67.55
2023-03-16T00:18:39.292Z,67.55
2023-03-16T00:19:39.587Z,67.55
2023-03-16T00:20:40.411Z,67.13
2023-03-16T00:21:41.192Z,67.34
2023-03-16T00:22:41.987Z,67.76
2023-03-16T00:23:42.833Z,67.44
2023-03-16T00:24:43.661Z,67.86
2023-03-16T00:25:44.504Z,67.76
2023-03-16T00:26:45.302Z,67.96
2023-03-16T00:27:46.094Z,67.65
2023-03-16T00:28:47.295Z,68.07
2023-03-16T00:29:47.526Z,67.86
2023-03-16T00:30:48.340Z,67.13
2023-03-16T00:31:49.286Z,67.24
2023-03-16T00:32:50.149Z,67.34
2023-03-16T00:33:50.960Z,67.55
2023-03-16T00:34:51.765Z,67.65
2023-03-16T00:35:52.719Z,67.55
2023-03-16T00:36:53.535Z,67.55
2023-03-16T00:37:54.373Z,67.76
2023-03-16T00:38:55.190Z,67.44
2023-03-16T00:39:56.074Z,67.55
2023-03-16T00:40:56.914Z,67.76
2023-03-16T00:41:57.740Z,68.38
2023-03-16T00:42:58.528Z,67.96
2023-03-16T00:43:59.336Z,67.96
2023-03-16T00:45:00.163Z,68.17
2023-03-16T00:46:00.983Z,67.24
2023-03-16T00:47:01.810Z,67.24
2023-03-16T00:48:02.607Z,67.76
2023-03-16T00:49:03.428Z,67.16
2023-03-16T00:50:04.244Z,66.85
2023-03-16T00:51:05.189Z,67.79
2023-03-16T00:52:06.008Z,67.27
2023-03-16T00:53:06.815Z,67.47
2023-03-16T00:54:07.645Z,67.06
2023-03-16T00:55:08.457Z,67.79
2023-03-16T00:56:09.268Z,67.68
2023-03-16T00:57:10.060Z,67.89
2023-03-16T00:58:10.860Z,67.79
2023-03-16T00:59:11.678Z,67.99
2023-03-16T01:00:12.603Z,68.10
2023-03-16T01:01:13.427Z,68.20
2023-03-16T01:02:14.237Z,68.20
2023-03-16T01:03:15.196Z,68.10
2023-03-16T01:04:16.013Z,68.62
2023-03-16T01:05:16.851Z,67.99
2023-03-16T01:06:17.653Z,67.37
2023-03-16T01:07:18.458Z,67.16
2023-03-16T01:08:19.281Z,67.27
2023-03-16T01:09:20.094Z,67.79
2023-03-16T01:10:20.921Z,67.58
2023-03-16T01:11:21.780Z,67.89
2023-03-16T01:12:22.591Z,68.20
2023-03-16T01:13:23.398Z,67.68
2023-03-16T01:14:24.227Z,68.51
2023-03-16T01:15:25.031Z,68.10
2023-03-16T01:16:25.866Z,68.62
2023-03-16T01:17:26.675Z,68.93
2023-03-16T01:18:27.525Z,69.13
2023-03-16T01:19:28.336Z,68.62
2023-03-16T01:20:29.591Z,68.82
2023-03-16T01:21:29.981Z,68.82
2023-03-16T01:22:30.811Z,67.89
2023-03-16T01:23:31.653Z,68.51
2023-03-16T01:24:32.454Z,67.89
2023-03-16T01:25:33.253Z,68.72
2023-03-16T01:26:34.044Z,67.89
2023-03-16T01:27:34.847Z,68.41
2023-03-16T01:28:35.686Z,69.03
2023-03-16T01:29:36.476Z,69.13
2023-03-16T01:30:37.334Z,69.13
2023-03-16T01:31:38.122Z,68.82
2023-03-16T01:32:39.000Z,69.03
2023-03-16T01:33:39.812Z,69.03
2023-03-16T01:34:40.631Z,69.45
2023-03-16T01:35:41.475Z,69.24
2023-03-16T01:36:42.305Z,68.62
2023-03-16T01:37:43.116Z,69.03
2023-03-16T01:38:43.960Z,68.82
2023-03-16T01:39:44.771Z,69.13
2023-03-16T01:40:45.565Z,68.93
2023-03-16T01:41:46.368Z,69.13
2023-03-16T01:42:47.189Z,68.82
2023-03-16T01:43:48.015Z,68.72
2023-03-16T01:44:48.844Z,69.03
2023-03-16T01:45:49.704Z,69.13
2023-03-16T01:46:50.501Z,69.13
2023-03-16T01:47:51.323Z,69.13
2023-03-16T01:48:52.158Z,69.13
2023-03-16T01:49:52.954Z,68.82
2023-03-16T01:50:53.785Z,68.62
2023-03-16T01:51:54.581Z,68.72
2023-03-16T01:52:55.383Z,68.72
2023-03-16T01:53:56.203Z,68.72
2023-03-16T01:54:57.041Z,68.23
2023-03-16T01:55:57.869Z,68.23
2023-03-16T01:56:58.679Z,68.65
2023-03-16T01:57:59.497Z,68.54
2023-03-16T01:59:00.310Z,69.06
2023-03-16T02:00:01.132Z,68.02
2023-03-16T02:01:01.964Z,68.13
2023-03-16T02:02:02.786Z,68.44
2023-03-16T02:03:03.600Z,68.65
2023-03-16T02:04:04.494Z,68.33
2023-03-16T02:05:05.415Z,68.13
2023-03-16T02:06:06.234Z,67.92
2023-03-16T02:07:07.071Z,68.33
2023-03-16T02:08:08.024Z,68.02
2023-03-16T02:09:08.882Z,68.44
2023-03-16T02:10:09.693Z,68.75
2023-03-16T02:11:10.498Z,68.02
2023-03-16T02:12:11.302Z,67.40
2023-03-16T02:13:12.118Z,67.40
2023-03-16T02:14:13.245Z,67.92
2023-03-16T02:15:13.497Z,68.23
2023-03-16T02:16:14.371Z,67.82
2023-03-16T02:17:15.178Z,67.40
2023-03-16T02:18:16.008Z,68.23
2023-03-16T02:19:16.832Z,68.54
2023-03-16T02:20:17.637Z,68.13
2023-03-16T02:21:18.427Z,68.23
2023-03-16T02:22:19.295Z,68.33
2023-03-16T02:23:20.120Z,68.23
2023-03-16T02:24:20.929Z,68.02
2023-03-16T02:25:21.736Z,68.02
2023-03-16T02:26:22.520Z,67.82
2023-03-16T02:27:23.338Z,68.54
2023-03-16T02:28:24.169Z,68.13
2023-03-16T02:29:25.013Z,68.44
2023-03-16T02:30:26.205Z,67.71
2023-03-16T02:31:26.697Z,68.13
2023-03-16T02:32:27.561Z,67.40
2023-03-16T02:33:28.382Z,68.13
2023-03-16T02:34:29.195Z,68.13
2023-03-16T02:35:30.079Z,68.33
2023-03-16T02:36:30.869Z,67.71
2023-03-16T02:37:31.707Z,67.82
2023-03-16T02:38:32.520Z,68.13
2023-03-16T02:39:33.333Z,68.02
2023-03-16T02:40:34.142Z,66.99
2023-03-16T02:41:34.978Z,67.61
2023-03-16T02:42:35.779Z,68.65
2023-03-16T02:43:36.608Z,68.13
2023-03-16T02:44:37.423Z,67.92
2023-03-16T02:45:38.237Z,68.44
2023-03-16T02:46:39.125Z,68.44
2023-03-16T02:47:39.911Z,68.65
2023-03-16T02:48:40.781Z,68.75
2023-03-16T02:49:41.600Z,68.44
2023-03-16T02:50:42.410Z,68.54
2023-03-16T02:51:43.248Z,68.75
2023-03-16T02:52:44.053Z,68.85
2023-03-16T02:53:44.869Z,68.96
2023-03-16T02:54:45.685Z,68.65
2023-03-16T02:55:46.510Z,67.92
2023-03-16T02:56:47.317Z,68.54
2023-03-16T02:57:48.132Z,68.78
2023-03-16T02:58:48.963Z,69.27
2023-03-16T02:59:49.762Z,68.75
2023-03-16T03:00:50.561Z,68.96
2023-03-16T03:01:51.382Z,68.96
2023-03-16T03:02:52.225Z,68.96
2023-03-16T03:03:53.081Z,68.96
2023-03-16T03:04:53.859Z,69.48
2023-03-16T03:05:54.676Z,68.96
2023-03-16T03:06:55.500Z,68.85
2023-03-16T03:07:56.309Z,68.65
2023-03-16T03:08:57.123Z,68.75
2023-03-16T03:09:57.948Z,68.57
2023-03-16T03:10:58.765Z,68.68
2023-03-16T03:11:59.572Z,68.88
2023-03-16T03:13:00.379Z,68.99
2023-03-16T03:14:01.244Z,69.30
2023-03-16T03:15:02.053Z,69.09
2023-03-16T03:16:02.963Z,69.09
2023-03-16T03:17:03.772Z,68.88
2023-03-16T03:18:04.591Z,68.68
2023-03-16T03:19:05.414Z,68.99
2023-03-16T03:20:06.210Z,69.17
2023-03-16T03:21:07.014Z,68.44
2023-03-16T03:22:07.823Z,68.85
2023-03-16T03:23:08.619Z,67.95
2023-03-16T03:24:09.441Z,67.95
2023-03-16T03:25:10.270Z,67.74
2023-03-16T03:26:11.075Z,67.85
2023-03-16T03:27:11.890Z,68.26
2023-03-16T03:28:12.701Z,68.23
2023-03-16T03:29:13.520Z,68.54
2023-03-16T03:30:14.339Z,68.44
2023-03-16T03:31:16.121Z,68.75
2023-03-16T03:32:15.767Z,68.54
2023-03-16T03:33:16.604Z,68.65
2023-03-16T03:34:17.445Z,68.65
2023-03-16T03:35:18.262Z,68.65
2023-03-16T03:36:19.080Z,68.75
2023-03-16T03:37:19.907Z,68.75
2023-03-16T03:38:20.752Z,68.75
2023-03-16T03:39:21.569Z,68.75
2023-03-16T03:40:22.375Z,68.13
2023-03-16T03:41:23.192Z,68.23
2023-03-16T03:42:24.008Z,68.54
2023-03-16T03:43:24.808Z,68.33
2023-03-16T03:44:25.627Z,68.54
2023-03-16T03:45:26.595Z,68.54
2023-03-16T03:46:27.631Z,68.65
2023-03-16T03:47:27.982Z,68.13
2023-03-16T03:48:28.819Z,68.33
2023-03-16T03:49:29.608Z,68.57
2023-03-16T03:50:30.615Z,68.78
2023-03-16T03:51:31.406Z,68.44
2023-03-16T03:52:32.214Z,68.54
2023-03-16T03:53:33.055Z,68.68
2023-03-16T03:54:33.869Z,68.65
2023-03-16T03:55:34.682Z,68.54
2023-03-16T03:56:35.491Z,68.47
2023-03-16T03:57:36.315Z,68.75
2023-03-16T03:58:37.134Z,68.57
2023-03-16T03:59:37.925Z,68.13
2023-03-16T04:00:38.718Z,67.74
2023-03-16T04:01:39.535Z,68.16
2023-03-16T04:02:40.527Z,67.85
2023-03-16T04:03:41.385Z,68.47
2023-03-16T04:04:41.514Z,68.99
2023-03-16T04:05:42.344Z,68.99
2023-03-16T04:06:43.148Z,68.99
2023-03-16T04:07:43.954Z,69.40
2023-03-16T04:08:44.760Z,69.20
2023-03-16T04:09:45.571Z,68.78
2023-03-16T04:10:46.398Z,68.57
2023-03-16T04:11:47.202Z,68.68
2023-03-16T04:12:48.023Z,68.37
2023-03-16T04:13:48.862Z,68.88
2023-03-16T04:14:49.680Z,69.09
2023-03-16T04:15:50.487Z,69.20
2023-03-16T04:16:51.354Z,69.30
2023-03-16T04:17:52.212Z,68.88
2023-03-16T04:18:53.008Z,69.09
2023-03-16T04:19:53.823Z,69.51
2023-03-16T04:20:54.640Z,69.40
2023-03-16T04:21:55.482Z,69.40
2023-03-16T04:22:56.314Z,69.40
2023-03-16T04:23:57.171Z,68.88
2023-03-16T04:24:57.967Z,69.40
2023-03-16T04:25:58.768Z,68.99
2023-03-16T04:26:59.564Z,68.78
2023-03-16T04:28:00.404Z,68.37
2023-03-16T04:29:01.205Z,68.44
2023-03-16T04:30:02.013Z,68.47
2023-03-16T04:31:02.862Z,68.75
2023-03-16T04:32:03.705Z,68.65
2023-03-16T04:33:04.643Z,68.47
2023-03-16T04:34:05.543Z,68.75
2023-03-16T04:35:06.356Z,68.99
2023-03-16T04:36:07.293Z,68.33
2023-03-16T04:37:08.169Z,68.47
2023-03-16T04:38:08.983Z,68.96
2023-03-16T04:39:09.833Z,69.27
2023-03-16T04:40:11.051Z,68.33
2023-03-16T04:41:11.323Z,68.44
2023-03-16T04:42:12.129Z,68.13
2023-03-16T04:43:12.921Z,68.13
2023-03-16T04:44:13.742Z,68.54
2023-03-16T04:45:14.569Z,68.85
2023-03-16T04:46:15.435Z,68.54
2023-03-16T04:47:22.990Z,68.65
2023-03-16T04:48:17.493Z,68.33
2023-03-16T04:49:17.737Z,68.85
2023-03-16T04:50:18.631Z,68.33
2023-03-16T04:51:19.479Z,68.65
2023-03-16T04:52:20.293Z,68.13
2023-03-16T04:53:21.153Z,68.33
2023-03-16T04:54:21.982Z,68.75
2023-03-16T04:55:22.875Z,68.44
2023-03-16T04:56:23.799Z,68.13
2023-03-16T04:57:24.675Z,68.13
2023-03-16T04:58:25.518Z,67.71
2023-03-16T04:59:26.337Z,68.02
2023-03-16T05:00:27.463Z,67.92
2023-03-16T05:01:27.877Z,67.92
2023-03-16T05:02:28.681Z,68.02
2023-03-16T05:03:30.031Z,68.75
2023-03-16T05:04:30.268Z,68.85
2023-03-16T05:05:31.247Z,68.54
2023-03-16T05:06:32.119Z,68.13
2023-03-16T05:07:32.960Z,68.54
2023-03-16T05:08:33.802Z,68.54
2023-03-16T05:09:35.569Z,68.65
2023-03-16T05:10:35.199Z,68.44
2023-03-16T05:11:36.013Z,68.44
2023-03-16T05:12:36.855Z,68.33
2023-03-16T05:13:37.705Z,68.75
2023-03-16T05:14:38.540Z,68.85
2023-03-16T05:15:39.431Z,67.82
2023-03-16T05:16:40.277Z,68.23
2023-03-16T05:17:41.132Z,68.44
2023-03-16T05:18:41.954Z,68.65
2023-03-16T05:19:42.759Z,68.65
2023-03-16T05:20:43.572Z,68.44
2023-03-16T05:21:44.380Z,68.54
2023-03-16T05:22:45.193Z,68.85
2023-03-16T05:23:47.024Z,69.06
2023-03-16T05:24:46.701Z,68.33
2023-03-16T05:25:47.497Z,68.13
2023-03-16T05:26:48.324Z,68.13
2023-03-16T05:27:49.151Z,68.13
2023-03-16T05:28:49.975Z,68.23
2023-03-16T05:29:50.823Z,68.23
2023-03-16T05:30:51.675Z,68.54
2023-03-16T05:31:52.485Z,68.65
2023-03-16T05:32:54.285Z,68.75
2023-03-16T05:33:53.965Z,68.23
2023-03-16T05:34:54.853Z,68.44
2023-03-16T05:35:55.712Z,68.54
2023-03-16T05:36:56.500Z,68.13
2023-03-16T05:37:57.295Z,68.54
2023-03-16T05:38:58.138Z,68.13
2023-03-16T05:39:58.959Z,68.75
2023-03-16T05:40:59.755Z,67.82
2023-03-16T05:42:00.587Z,67.82
2023-03-16T05:43:01.511Z,68.33
2023-03-16T05:44:02.368Z,68.65
2023-03-16T05:45:03.180Z,68.23
2023-03-16T05:46:04.031Z,68.33
2023-03-16T05:47:04.972Z,68.33
2023-03-16T05:48:05.824Z,68.54
2023-03-16T05:49:06.626Z,68.33
2023-03-16T05:50:07.549Z,68.54
2023-03-16T05:51:08.345Z,68.44
2023-03-16T05:52:09.182Z,68.33
2023-03-16T05:53:10.007Z,68.54
2023-03-16T05:54:10.857Z,68.41
2023-03-16T05:55:11.701Z,68.44
2023-03-16T05:56:12.537Z,68.02
2023-03-16T05:57:13.370Z,67.82
2023-03-16T05:58:14.225Z,68.33
2023-03-16T05:59:15.068Z,68.33
2023-03-16T06:00:15.872Z,68.23
2023-03-16T06:01:16.737Z,68.13
2023-03-16T06:02:17.583Z,68.65
2023-03-16T06:03:18.536Z,68.33
2023-03-16T06:04:19.437Z,68.44
2023-03-16T06:05:20.230Z,67.92
2023-03-16T06:06:21.042Z,68.54
2023-03-16T06:07:21.895Z,68.75
2023-03-16T06:08:22.713Z,68.75
2023-03-16T06:09:23.555Z,68.75
2023-03-16T06:10:24.381Z,68.54
2023-03-16T06:11:25.210Z,68.44
2023-03-16T06:12:26.016Z,68.85
2023-03-16T06:13:27.047Z,68.65
2023-03-16T06:14:27.875Z,68.85
2023-03-16T06:15:28.692Z,68.96
2023-03-16T06:16:29.839Z,68.85
2023-03-16T06:17:30.078Z,68.85
2023-03-16T06:18:30.913Z,68.85
2023-03-16T06:19:31.733Z,68.65
2023-03-16T06:20:32.535Z,68.44
2023-03-16T06:21:33.345Z,68.96
2023-03-16T06:22:34.179Z,69.13
2023-03-16T06:23:35.089Z,68.93
2023-03-16T06:24:35.903Z,68.51
2023-03-16T06:25:39.499Z,68.82
2023-03-16T06:26:37.286Z,68.62
2023-03-16T06:27:38.133Z,68.72
2023-03-16T06:28:39.027Z,68.82
2023-03-16T06:29:39.847Z,68.30
2023-03-16T06:30:40.658Z,68.72
2023-03-16T06:31:41.568Z,68.72
2023-03-16T06:32:42.497Z,69.03
2023-03-16T06:33:43.405Z,69.13
2023-03-16T06:34:44.234Z,68.72
2023-03-16T06:35:45.073Z,68.10
2023-03-16T06:36:45.845Z,68.20
2023-03-16T06:37:46.660Z,68.20
2023-03-16T06:38:47.485Z,68.41
2023-03-16T06:39:48.295Z,68.51
2023-03-16T06:40:49.090Z,68.51
2023-03-16T06:41:49.908Z,68.72
2023-03-16T06:42:51.454Z,67.99
2023-03-16T06:43:51.737Z,67.79
2023-03-16T06:44:52.558Z,68.10
2023-03-16T06:45:53.439Z,68.51
2023-03-16T06:46:54.283Z,68.72
2023-03-16T06:47:55.106Z,69.13
2023-03-16T06:48:55.970Z,68.51
2023-03-16T06:49:56.765Z,68.59
2023-03-16T06:50:57.577Z,67.99
2023-03-16T06:51:58.407Z,68.20
2023-03-16T06:52:59.236Z,68.27
2023-03-16T06:54:00.061Z,68.48
2023-03-16T06:55:00.901Z,68.59
2023-03-16T06:56:01.696Z,68.48
2023-03-16T06:57:02.545Z,68.38
2023-03-16T06:58:03.358Z,68.07
2023-03-16T06:59:04.164Z,67.96
2023-03-16T07:00:05.005Z,68.07
2023-03-16T07:01:05.943Z,68.38
2023-03-16T07:02:06.725Z,68.79
2023-03-16T07:03:07.541Z,68.07
2023-03-16T07:04:08.433Z,67.96
2023-03-16T07:05:09.239Z,68.48
2023-03-16T07:06:10.061Z,68.07
2023-03-16T07:07:10.871Z,67.86
2023-03-16T07:08:11.694Z,68.38
2023-03-16T07:09:12.634Z,68.17
2023-03-16T07:10:13.452Z,67.76
2023-03-16T07:11:14.261Z,67.76
2023-03-16T07:12:15.086Z,67.55
2023-03-16T07:13:15.980Z,67.96
2023-03-16T07:14:16.794Z,68.07
2023-03-16T07:15:17.657Z,67.61
2023-03-16T07:16:18.561Z,68.24
2023-03-16T07:17:19.365Z,68.55
2023-03-16T07:18:20.189Z,67.82
2023-03-16T07:19:21.076Z,67.61
2023-03-16T07:20:23.665Z,67.72
2023-03-16T07:21:23.023Z,68.03
2023-03-16T07:22:23.887Z,67.41
2023-03-16T07:23:24.722Z,67.51
2023-03-16T07:24:25.534Z,67.20
2023-03-16T07:25:26.394Z,67.41
2023-03-16T07:26:27.259Z,67.30
2023-03-16T07:27:28.049Z,67.72
2023-03-16T07:28:28.882Z,67.79
2023-03-16T07:29:29.938Z,66.96
2023-03-16T07:30:30.907Z,66.86
2023-03-16T07:31:31.886Z,67.07
2023-03-16T07:32:32.930Z,66.96
2023-03-16T07:33:34.231Z,66.96
2023-03-16T07:34:34.488Z,66.96
2023-03-16T07:35:35.390Z,66.86
2023-03-16T07:36:36.259Z,67.07
2023-03-16T07:37:37.080Z,66.96
2023-03-16T07:38:37.976Z,67.14
2023-03-16T07:39:38.772Z,67.24
2023-03-16T07:40:39.598Z,67.35
2023-03-16T07:41:40.434Z,66.93
2023-03-16T07:42:41.253Z,66.72
2023-03-16T07:43:42.093Z,66.52
2023-03-16T07:44:42.921Z,66.21
2023-03-16T07:45:43.760Z,66.00
2023-03-16T07:46:44.594Z,66.11
2023-03-16T07:47:45.463Z,66.00
2023-03-16T07:48:46.303Z,66.41
2023-03-16T07:49:47.115Z,65.97
2023-03-16T07:50:47.923Z,67.00
2023-03-16T07:51:48.750Z,67.00
2023-03-16T07:52:49.572Z,67.00
2023-03-16T07:53:50.404Z,66.28
2023-03-16T07:54:51.247Z,65.97
2023-03-16T07:55:52.069Z,65.87
2023-03-16T07:56:52.884Z,65.63
2023-03-16T07:57:53.713Z,65.53
2023-03-16T07:58:54.683Z,65.84
2023-03-16T07:59:55.481Z,65.84
2023-03-16T08:00:56.304Z,65.53
2023-03-16T08:01:57.213Z,64.90
2023-03-16T08:02:58.095Z,64.70
2023-03-16T08:03:59.034Z,65.32
2023-03-16T08:04:59.865Z,65.63
2023-03-16T08:06:00.768Z,65.11
2023-03-16T08:07:01.580Z,65.63
2023-03-16T08:08:02.388Z,65.42
2023-03-16T08:09:03.232Z,65.73
2023-03-16T08:10:04.117Z,65.42
2023-03-16T08:11:04.896Z,65.94
2023-03-16T08:12:05.717Z,65.63
2023-03-16T08:13:06.660Z,66.02
2023-03-16T08:14:07.502Z,65.60
2023-03-16T08:15:08.357Z,65.60
2023-03-16T08:16:09.238Z,64.77
2023-03-16T08:17:10.011Z,64.87
2023-03-16T08:18:10.843Z,65.50
2023-03-16T08:19:11.671Z,65.39
2023-03-16T08:20:12.492Z,64.98
2023-03-16T08:21:13.323Z,65.39
2023-03-16T08:22:14.145Z,65.08
2023-03-16T08:23:14.981Z,64.87
2023-03-16T08:24:15.781Z,64.46
2023-03-16T08:25:16.607Z,64.56
2023-03-16T08:26:17.397Z,64.46
2023-03-16T08:27:18.229Z,64.25
2023-03-16T08:28:19.653Z,64.77
2023-03-16T08:29:20.700Z,66.02
2023-03-16T08:30:20.937Z,65.70
2023-03-16T08:31:21.824Z,65.60
2023-03-16T08:32:22.640Z,64.84
2023-03-16T08:33:23.729Z,65.16
2023-03-16T08:34:24.006Z,64.74
2023-03-16T08:35:24.824Z,64.64
2023-03-16T08:36:25.665Z,64.23
2023-03-16T08:37:27.056Z,65.16
2023-03-16T08:38:27.312Z,64.74
2023-03-16T08:39:28.132Z,64.53
2023-03-16T08:40:29.396Z,64.95
2023-03-16T08:41:29.806Z,64.53
2023-03-16T08:42:30.611Z,64.84
2023-03-16T08:43:31.441Z,64.20
2023-03-16T08:44:32.295Z,64.40
2023-03-16T08:45:33.092Z,64.81
2023-03-16T08:46:34.061Z,65.23
2023-03-16T08:47:34.898Z,65.12
2023-03-16T08:48:35.760Z,65.44
2023-03-16T08:49:36.561Z,64.40
2023-03-16T08:50:37.353Z,63.85
2023-03-16T08:51:38.182Z,64.17
2023-03-16T08:52:39.010Z,64.37
2023-03-16T08:53:39.836Z,64.48
2023-03-16T08:54:43.109Z,64.78
2023-03-16T08:55:41.196Z,64.27
2023-03-16T08:56:42.020Z,64.89
2023-03-16T08:57:42.917Z,64.99
2023-03-16T08:58:43.734Z,64.99
2023-03-16T08:59:44.632Z,64.96
2023-03-16T09:00:47.102Z,64.55
2023-03-16T09:01:46.366Z,64.45
2023-03-16T09:02:47.188Z,64.45
2023-03-16T09:03:48.094Z,64.24
2023-03-16T09:04:48.995Z,64.55
2023-03-16T09:05:49.795Z,64.65
2023-03-16T09:07:02.333Z,64.96
2023-03-16T09:07:51.142Z,64.86
2023-03-16T09:08:52.001Z,64.65
2023-03-16T09:09:52.790Z,64.76
2023-03-16T09:10:53.618Z,64.76
2023-03-16T09:11:54.430Z,64.34
2023-03-16T09:12:55.257Z,64.34
2023-03-16T09:13:56.095Z,64.14
2023-03-16T09:14:56.917Z,64.03
2023-03-16T09:15:57.801Z,63.62
2023-03-16T09:16:58.607Z,63.21
2023-03-16T09:17:59.415Z,63.51
2023-03-16T09:19:00.232Z,64.14
2023-03-16T09:20:11.463Z,64.45
2023-03-16T09:21:01.625Z,64.65
2023-03-16T09:22:02.445Z,64.42
2023-03-16T09:23:03.239Z,65.03
2023-03-16T09:24:04.076Z,65.14
2023-03-16T14:50:07.136Z,51.95
2023-03-16T14:51:09.185Z,51.54
2023-03-16T14:52:10.013Z,51.54
2023-03-16T14:53:10.836Z,52.06
2023-03-16T14:54:11.701Z,51.75
2023-03-16T14:55:12.540Z,51.75
2023-03-16T14:56:13.626Z,51.95
2023-03-16T14:57:13.944Z,51.54
2023-03-16T14:58:14.767Z,51.75
2023-03-16T14:59:15.574Z,52.16
2023-03-16T15:00:16.435Z,51.54
2023-03-16T15:01:17.306Z,51.75
2023-03-16T15:02:18.385Z,51.86
2023-03-16T15:03:18.923Z,51.75
2023-03-16T15:04:19.221Z,51.75
2023-03-16T15:05:20.077Z,51.54
2023-03-16T15:06:20.929Z,51.75
2023-03-16T15:07:21.818Z,51.65
2023-03-16T15:08:22.675Z,51.75
2023-03-16T15:09:23.551Z,52.16
2023-03-16T15:10:24.408Z,52.37
2023-03-16T15:11:25.288Z,52.47
2023-03-16T15:12:26.150Z,52.67
2023-03-16T15:13:26.975Z,52.37
2023-03-16T15:14:27.836Z,52.26
2023-03-16T15:15:28.732Z,52.26
2023-03-16T15:16:29.608Z,52.16
2023-03-16T15:17:30.498Z,51.95
2023-03-16T15:18:31.373Z,52.26
2023-03-16T15:19:32.258Z,52.06
2023-03-16T15:20:33.091Z,52.06
2023-03-16T15:21:34.004Z,52.37
2023-03-16T15:22:35.377Z,52.47
2023-03-16T15:23:35.737Z,52.26
2023-03-16T15:24:36.577Z,52.57
2023-03-16T15:25:37.472Z,52.16
2023-03-16T15:26:38.671Z,52.47
2023-03-16T15:27:38.942Z,52.78
2023-03-16T15:28:39.784Z,52.78
2023-03-16T15:29:40.621Z,52.78
2023-03-16T15:30:41.428Z,52.57
2023-03-16T15:31:42.346Z,52.98
2023-03-16T15:32:43.284Z,52.87
2023-03-16T15:33:44.094Z,52.57
2023-03-16T15:34:44.954Z,52.98
2023-03-16T15:35:45.789Z,53.19
2023-03-16T15:36:46.618Z,53.19
2023-03-16T15:37:47.484Z,53.19
2023-03-16T15:38:48.335Z,53.28
2023-03-16T15:39:49.215Z,53.39
2023-03-16T15:40:50.043Z,53.28
2023-03-16T15:41:50.891Z,53.39
2023-03-16T15:42:51.744Z,53.59
2023-03-16T15:43:52.584Z,53.69
2023-03-16T15:44:53.417Z,53.69
2023-03-16T15:45:54.320Z,53.39
2023-03-16T15:46:55.216Z,53.69
2023-03-16T15:47:56.045Z,53.90
2023-03-16T15:48:56.892Z,54.10
2023-03-16T15:49:57.730Z,53.90
2023-03-16T15:50:58.560Z,53.80
2023-03-16T15:51:59.412Z,54.13
2023-03-16T15:53:00.259Z,54.13
2023-03-16T15:54:01.132Z,54.23
2023-03-16T15:55:01.977Z,54.23
2023-03-16T15:56:02.837Z,54.44
2023-03-16T15:57:03.748Z,54.54
2023-03-16T15:58:04.698Z,54.64
2023-03-16T15:59:05.594Z,54.74
2023-03-16T16:00:06.390Z,54.33
2023-03-16T16:01:07.379Z,54.54
2023-03-16T16:02:08.271Z,54.85
2023-03-16T16:03:09.143Z,54.74
2023-03-16T16:04:10.044Z,54.85
2023-03-16T16:05:10.871Z,54.95
2023-03-16T16:06:11.726Z,54.85
2023-03-16T16:07:12.551Z,55.15
2023-03-16T16:08:13.420Z,55.26
2023-03-16T16:09:14.262Z,55.05
2023-03-16T16:10:15.083Z,55.05
2023-03-16T16:11:15.930Z,55.05
2023-03-16T16:12:16.763Z,55.05
2023-03-16T16:13:17.610Z,55.05
2023-03-16T16:14:18.534Z,55.36
2023-03-16T16:15:19.383Z,55.36
2023-03-16T16:16:20.248Z,55.28
2023-03-16T16:17:24.782Z,55.26
2023-03-16T16:18:22.353Z,55.08
2023-03-16T16:19:22.626Z,55.28
2023-03-16T16:20:23.528Z,55.58
2023-03-16T16:21:24.799Z,55.38
2023-03-16T16:22:25.079Z,55.18
2023-03-16T16:23:25.945Z,55.38
2023-03-16T16:24:26.790Z,55.58
2023-03-16T16:25:27.974Z,55.49
2023-03-16T16:26:41.349Z,55.58
2023-03-16T16:27:28.990Z,55.79
2023-03-16T16:28:29.958Z,55.69
2023-03-16T16:29:30.809Z,55.58
2023-03-16T16:30:31.676Z,55.49
2023-03-16T16:31:32.577Z,55.49
2023-03-16T16:32:33.450Z,55.58
2023-03-16T16:33:34.327Z,56.00
2023-03-16T16:34:35.131Z,56.00
2023-03-16T16:35:36.004Z,55.79
2023-03-16T16:36:36.831Z,55.79
2023-03-16T16:37:42.165Z,55.49
2023-03-16T16:38:38.349Z,55.90
2023-03-16T16:39:39.271Z,55.90
2023-03-16T16:40:40.128Z,55.90
2023-03-16T16:41:41.012Z,56.10
2023-03-16T16:42:41.848Z,55.79
2023-03-16T16:43:42.699Z,55.92
2023-03-16T16:44:43.556Z,56.00
2023-03-16T16:45:44.460Z,55.92
2023-03-16T16:46:45.295Z,56.13
2023-03-16T16:47:46.141Z,56.13
2023-03-16T16:48:46.993Z,55.82
2023-03-16T16:49:47.867Z,55.82
2023-03-16T16:50:48.708Z,55.62
2023-03-16T16:51:49.575Z,55.62
2023-03-16T16:52:50.423Z,55.72
2023-03-16T16:53:51.274Z,55.72
2023-03-16T16:54:52.101Z,56.13
2023-03-16T16:55:52.962Z,55.92
2023-03-16T16:56:53.828Z,56.02
2023-03-16T16:57:54.704Z,55.72
2023-03-16T16:58:55.579Z,55.10
2023-03-16T16:59:56.439Z,55.30
2023-03-16T17:00:57.291Z,55.62
2023-03-16T17:01:58.151Z,55.72
2023-03-16T17:02:59.010Z,55.51
2023-03-16T17:03:59.868Z,55.62
2023-03-16T17:05:00.740Z,55.51
2023-03-16T17:06:01.597Z,55.30
2023-03-16T17:07:02.466Z,55.10
2023-03-16T17:08:03.319Z,55.30
2023-03-16T17:09:04.174Z,55.21
2023-03-16T17:10:05.030Z,55.43
2023-03-16T17:11:06.599Z,55.00
2023-03-16T17:12:06.881Z,55.54
2023-03-16T17:13:07.716Z,54.92
2023-03-16T17:14:08.575Z,54.72
2023-03-16T17:15:09.429Z,55.02
2023-03-16T17:16:10.265Z,55.23
2023-03-16T17:17:11.148Z,55.33
2023-03-16T17:18:12.065Z,55.13
2023-03-16T17:19:12.904Z,55.23
2023-03-16T17:20:13.791Z,55.23
2023-03-16T17:21:14.586Z,55.23
2023-03-16T17:22:16.451Z,54.92
2023-03-16T17:23:16.113Z,55.33
2023-03-16T17:24:16.951Z,55.13
2023-03-16T17:25:17.770Z,55.33
2023-03-16T17:26:18.580Z,55.33
2023-03-16T17:27:19.416Z,55.02
2023-03-16T17:28:20.234Z,55.33
2023-03-16T17:29:21.132Z,55.23
2023-03-16T17:30:21.946Z,55.23
2023-03-16T17:31:22.843Z,55.13
2023-03-16T17:32:23.719Z,55.02
2023-03-16T17:33:24.556Z,54.82
2023-03-16T17:34:25.375Z,55.02
2023-03-16T17:35:26.258Z,55.13
2023-03-16T17:36:27.070Z,55.02
2023-03-16T17:37:27.898Z,55.43
2023-03-16T17:38:28.734Z,55.33
2023-03-16T17:39:29.574Z,54.92
2023-03-16T17:40:30.589Z,54.92
2023-03-16T17:41:33.071Z,55.13
2023-03-16T17:42:32.336Z,55.23
2023-03-16T17:43:33.116Z,55.23
2023-03-16T17:44:33.987Z,55.33
2023-03-16T17:45:34.841Z,55.15
2023-03-16T17:46:35.697Z,55.26
2023-03-16T17:47:36.562Z,55.46
2023-03-16T17:48:37.382Z,55.36
2023-03-16T17:49:38.188Z,55.26
2023-03-16T17:50:39.037Z,55.26
2023-03-16T17:51:40.570Z,55.46
2023-03-16T17:52:40.867Z,55.15
2023-03-16T17:53:41.688Z,55.05
2023-03-16T17:54:42.508Z,55.05
2023-03-16T17:55:43.342Z,55.36
2023-03-16T17:56:44.184Z,55.05
2023-03-16T17:57:45.007Z,55.46
2023-03-16T17:58:45.820Z,54.95
2023-03-16T17:59:46.653Z,55.05
2023-03-16T18:00:47.496Z,55.05
2023-03-16T18:01:48.468Z,55.26
2023-03-16T18:02:49.319Z,55.56
2023-03-16T18:03:50.112Z,55.05
2023-03-16T18:04:51.034Z,54.95
2023-03-16T18:05:51.840Z,55.36
2023-03-16T18:06:52.719Z,55.26
2023-03-16T18:07:53.549Z,55.26
2023-03-16T18:08:54.363Z,55.38
2023-03-16T18:09:55.190Z,55.36
2023-03-16T18:10:56.060Z,55.05
2023-03-16T18:11:56.891Z,55.18
2023-03-16T18:12:57.751Z,55.15
2023-03-16T18:13:58.545Z,55.49
2023-03-16T18:14:59.359Z,55.49
2023-03-16T18:16:00.263Z,55.18
2023-03-16T18:17:01.138Z,55.38
2023-03-16T18:18:01.970Z,55.18
2023-03-16T18:19:02.757Z,55.28
2023-03-16T18:20:03.595Z,55.08
2023-03-16T18:21:04.495Z,55.18
2023-03-16T18:22:05.565Z,55.08
2023-03-16T18:23:05.792Z,55.28
2023-03-16T18:24:06.641Z,55.28
2023-03-16T18:25:07.471Z,55.18
2023-03-16T18:26:08.290Z,54.87
2023-03-16T18:27:09.389Z,55.69
2023-03-16T18:28:09.653Z,55.59